7XS7 weather

Indian Springs Ranch Airport
Fredericksburg, Texas, United States

Public forecast

Using degrees Fahrenheit for public forecast. Weather courtesy of forecast.io.

Closest aviation weather report (METAR) to Indian Springs Ranch Airport

Closest report is Gillespie County Airport, 7.8 nm (14.4 km) N. Retrieved 2019/10/21 16:35 UTC (0 seconds ago):

KT82 211635Z AUTO 02008KT 10SM CLR 20/01 A2998 RMK AO2 T01990009

Closest aviation forecast (TAF) to Indian Springs Ranch Airport

Closest forecast is San Antonio International Airport, 42.4 nm (78.4 km) SE. Retrieved 2019/10/21 12:40 UTC (4 hours ago):

TAF KSAT 211138Z 2112/2218 33005KT P6SM BKN050 FM211500 01014KT P6SM FEW100 FM212100 01007KT P6SM SKC